Aviation Digital Data Service (ADDS)

Output produced by TAFs form (0746 UTC 23 July 2018)
found at http://www.aviationweather.gov/adds/tafs/
 
KMCN 230653Z AUTO 35004KT 10SM SCT080 OVC120 20/19 A2978 RMK AO2 SLP077 T02000194
KMCN 230520Z 2306/2406 VRB03KT P6SM VCSH SCT030 BKN080 
     FM230900 VRB03KT 3SM BR SCT005 BKN100 
     FM231400 VRB03KT P6SM VCSH SCT020 BKN100 
     FM231800 09005KT P6SM -SHRA BKN045 
     PROB30 2319/2323 4SM TSRA BKN035CB 
     FM240000 VRB03KT P6SM VCSH SCT030 BKN050